Toto, Indiana
Current Conditions -  °F | °C
As of 7:15 AM on Sunday 21 Dec 2014 (Local Time) from KOXI Reporting Station
Overcast Overcast  
Wind Chill: -4°   Ceiling: 5500
Heat Index: -1°   Visibility: 5mi
Dew Point: -4°   Wind: 6mph
Humidity: 77%   Direction: 170°S
Pressure: 30.26"   Gusts: NA
Location:  41.2954°N, 86.6039°W
Report Text: KOXI 211315Z AUTO 17005KT 5SM SCT030 OVC055 M01/M04 A3026 RMK AO1 T10081043
Loading
Personal Weather Stations






























Interactive Weather Map New forecast layout! Learn more

10-Day Weather Forecast

Advertisements
Track Severe Weather on mobile